Time;durP1;ratioP1;P1;durP2;ratioP2;P2;SDS_P1;SDS_P2;PMS_P1;PMS_P2;Temp;Humidity;BMP_temperature;BMP_pressure;BME280_temperature;BME280_humidity;BME280_pressure;Samples;Min_cycle;Max_cycle;Signal;HPM_P1;HPM_P2
2022/07/07 00:01:44;;;;;;;;;;;28.70;52.60;;;;;;5056084;28;20240;-86
2022/07/07 00:04:10;;;;;;;;;;;28.70;52.50;;;;;;5037867;28;20375;-84
2022/07/07 00:06:35;;;;;;;;;;;28.70;52.40;;;;;;5037878;28;19931;-85
2022/07/07 00:09:01;;;;;;;;;;;28.70;52.30;;;;;;5056024;28;19932;-85
2022/07/07 00:11:27;;;;;;;;;;;28.70;52.10;;;;;;5040614;28;19913;-86
2022/07/07 00:13:52;;;;;;;;;;;28.70;53.00;;;;;;5057374;28;19912;-85
2022/07/07 00:16:18;;;;;;;;;;;28.70;52.60;;;;;;5065291;28;19908;-87
2022/07/07 00:18:44;;;;;;;;;;;28.60;53.20;;;;;;5075822;28;19932;-86
2022/07/07 00:21:10;;;;;;;;;;;28.60;53.00;;;;;;5075668;28;19915;-85
2022/07/07 00:23:36;;;;;;;;;;;28.60;53.00;;;;;;5075863;28;19995;-86
2022/07/07 00:26:02;;;;;;;;;;;28.60;53.00;;;;;;5076002;28;19914;-86
2022/07/07 00:28:27;;;;;;;;;;;28.60;53.60;;;;;;5075729;28;19913;-84
2022/07/07 00:30:53;;;;;;;;;;;28.60;54.70;;;;;;5075273;28;19916;-86
2022/07/07 00:33:18;;;;;;;;;;;28.50;53.00;;;;;;5075621;28;19959;-86
2022/07/07 00:35:44;;;;;;;;;;;28.50;53.40;;;;;;5075245;28;20353;-85
2022/07/07 00:38:10;;;;;;;;;;;28.50;53.80;;;;;;5047104;28;19920;-85
2022/07/07 00:40:35;;;;;;;;;;;28.50;53.40;;;;;;5056278;28;19967;-84
2022/07/07 00:43:01;;;;;;;;;;;28.50;54.10;;;;;;5055117;28;19920;-84
2022/07/07 00:45:26;;;;;;;;;;;28.50;53.90;;;;;;5055472;28;19909;-85
2022/07/07 00:47:52;;;;;;;;;;;28.50;54.80;;;;;;5054825;28;20011;-85
2022/07/07 00:50:18;;;;;;;;;;;28.40;54.00;;;;;;5055105;28;19935;-85
2022/07/07 00:52:43;;;;;;;;;;;28.30;53.90;;;;;;5056022;28;19967;-85
2022/07/07 00:55:09;;;;;;;;;;;28.30;55.30;;;;;;5055239;28;20007;-85
2022/07/07 00:57:35;;;;;;;;;;;28.30;55.00;;;;;;5055171;28;20422;-86
2022/07/07 01:00:04;;;;;;;;;;;28.20;55.50;;;;;;5054888;28;19952;-86
2022/07/07 01:02:30;;;;;;;;;;;28.20;55.40;;;;;;5058413;28;19908;-86
2022/07/07 01:04:57;;;;;;;;;;;28.20;55.30;;;;;;5061185;28;19909;-85
2022/07/07 01:07:23;;;;;;;;;;;28.10;56.00;;;;;;5055383;28;20355;-87
2022/07/07 01:09:49;;;;;;;;;;;28.10;55.60;;;;;;5054941;28;19916;-86
2022/07/07 01:12:14;;;;;;;;;;;28.10;55.50;;;;;;5054458;28;19917;-87
2022/07/07 01:14:40;;;;;;;;;;;28.10;56.40;;;;;;5054760;28;20374;-85
2022/07/07 01:17:05;;;;;;;;;;;28.10;55.80;;;;;;5054934;28;20347;-88
2022/07/07 01:19:31;;;;;;;;;;;28.10;55.30;;;;;;5057586;28;19909;-88
2022/07/07 01:22:03;;;;;;;;;;;28.10;55.70;;;;;;5055197;28;19955;-88
2022/07/07 01:24:29;;;;;;;;;;;28.10;55.00;;;;;;5055045;28;19913;-87
2022/07/07 01:27:05;;;;;;;;;;;28.10;55.70;;;;;;5055827;28;20382;-88
2022/07/07 01:29:41;;;;;;;;;;;28.00;55.90;;;;;;5055772;28;19909;-88
2022/07/07 01:32:08;;;;;;;;;;;28.00;58.00;;;;;;5054889;28;19934;-88
2022/07/07 01:34:34;;;;;;;;;;;28.00;55.30;;;;;;5056242;28;20375;-87
2022/07/07 01:36:59;;;;;;;;;;;28.00;55.80;;;;;;5057763;28;19908;-86
2022/07/07 01:39:25;;;;;;;;;;;27.90;57.50;;;;;;5074616;28;20362;-88
2022/07/07 01:41:50;;;;;;;;;;;27.90;56.00;;;;;;5074974;28;19991;-86
2022/07/07 01:44:16;;;;;;;;;;;27.90;57.70;;;;;;5074760;28;19908;-88
2022/07/07 01:46:42;;;;;;;;;;;27.90;57.00;;;;;;5075245;28;20268;-88
2022/07/07 01:49:07;;;;;;;;;;;27.80;58.00;;;;;;5074315;28;19913;-88
2022/07/07 01:51:33;;;;;;;;;;;27.80;57.10;;;;;;5074173;28;19935;-86
2022/07/07 01:53:58;;;;;;;;;;;27.80;57.20;;;;;;5074668;28;19918;-87
2022/07/07 01:56:24;;;;;;;;;;;27.70;56.50;;;;;;5074942;28;19916;-87
2022/07/07 01:58:49;;;;;;;;;;;27.80;56.60;;;;;;5074127;28;19916;-86
2022/07/07 02:01:15;;;;;;;;;;;27.70;58.50;;;;;;5074055;28;19972;-87
2022/07/07 02:03:41;;;;;;;;;;;27.70;57.50;;;;;;5074164;28;19908;-87
2022/07/07 02:06:06;;;;;;;;;;;27.60;56.90;;;;;;5074392;28;20003;-87
2022/07/07 02:08:32;;;;;;;;;;;27.60;56.70;;;;;;5056401;28;19916;-87
2022/07/07 02:11:13;;;;;;;;;;;27.60;57.20;;;;;;5074451;28;19912;-87
2022/07/07 02:13:39;;;;;;;;;;;27.60;56.80;;;;;;5074360;28;19912;-87
2022/07/07 02:16:05;;;;;;;;;;;27.60;57.10;;;;;;5076079;28;19913;-85
2022/07/07 02:18:34;;;;;;;;;;;27.60;57.90;;;;;;5077401;28;19962;-83
2022/07/07 02:21:00;;;;;;;;;;;27.60;58.00;;;;;;5078191;28;20012;-87
2022/07/07 02:23:26;;;;;;;;;;;27.50;58.60;;;;;;5078586;28;19951;-88
2022/07/07 02:25:51;;;;;;;;;;;27.50;57.80;;;;;;5078898;28;19909;-90
2022/07/07 02:28:19;;;;;;;;;;;27.50;57.70;;;;;;5082203;28;19909;-86
2022/07/07 02:30:44;;;;;;;;;;;27.50;57.10;;;;;;5080299;28;19912;-87
2022/07/07 02:33:10;;;;;;;;;;;27.50;58.00;;;;;;5059835;28;19920;-88
2022/07/07 02:35:36;;;;;;;;;;;27.50;57.40;;;;;;5078083;28;20000;-88
2022/07/07 02:38:01;;;;;;;;;;;27.50;57.40;;;;;;5078080;28;19963;-87
2022/07/07 02:40:27;;;;;;;;;;;27.50;58.50;;;;;;5078180;28;20350;-86
2022/07/07 02:42:52;;;;;;;;;;;27.50;57.80;;;;;;5078899;28;20263;-89
2022/07/07 02:45:18;;;;;;;;;;;27.50;58.10;;;;;;5078343;28;19966;-88
2022/07/07 02:47:43;;;;;;;;;;;27.40;57.70;;;;;;5078486;28;19935;-86
2022/07/07 02:50:09;;;;;;;;;;;27.40;58.30;;;;;;5078870;28;19977;-87
2022/07/07 02:52:34;;;;;;;;;;;27.40;57.20;;;;;;5077764;28;19916;-89
2022/07/07 02:55:00;;;;;;;;;;;27.40;58.30;;;;;;5062665;28;20278;-86
2022/07/07 02:57:25;;;;;;;;;;;27.40;57.90;;;;;;5078580;28;20215;-87
2022/07/07 02:59:51;;;;;;;;;;;27.40;58.30;;;;;;5077387;28;19909;-87
2022/07/07 03:02:16;;;;;;;;;;;27.40;58.00;;;;;;5085620;28;19909;-86
2022/07/07 03:04:42;;;;;;;;;;;27.40;58.50;;;;;;5083236;28;19912;-88
2022/07/07 03:07:08;;;;;;;;;;;27.30;58.00;;;;;;5077789;28;19995;-89
2022/07/07 03:09:33;;;;;;;;;;;27.40;58.30;;;;;;5077285;28;19952;-87
2022/07/07 03:11:59;;;;;;;;;;;27.40;58.00;;;;;;5077339;28;19913;-88
2022/07/07 03:14:25;;;;;;;;;;;27.40;58.00;;;;;;5077651;28;19913;-89
2022/07/07 03:16:50;;;;;;;;;;;27.40;58.40;;;;;;5077574;28;20011;-88
2022/07/07 03:19:16;;;;;;;;;;;27.40;58.70;;;;;;5077870;28;19979;-90
2022/07/07 03:21:41;;;;;;;;;;;27.40;58.10;;;;;;5061014;28;19909;-88
2022/07/07 03:24:07;;;;;;;;;;;27.40;58.10;;;;;;5076986;28;19909;-88
2022/07/07 03:26:33;;;;;;;;;;;27.40;58.20;;;;;;5077105;28;19961;-89
2022/07/07 03:28:58;;;;;;;;;;;27.50;58.30;;;;;;5076470;28;20263;-86
2022/07/07 03:31:24;;;;;;;;;;;27.50;58.50;;;;;;5046590;28;19927;-89
2022/07/07 03:33:49;;;;;;;;;;;27.50;57.90;;;;;;5067547;28;19920;-87
2022/07/07 03:36:15;;;;;;;;;;;27.60;58.00;;;;;;5068735;28;19909;-88
2022/07/07 03:38:41;;;;;;;;;;;27.60;58.00;;;;;;5069004;28;19920;-89
2022/07/07 03:41:06;;;;;;;;;;;27.60;57.80;;;;;;5064825;28;19947;-87
2022/07/07 03:43:32;;;;;;;;;;;27.70;57.90;;;;;;5060653;28;19909;-89
2022/07/07 03:45:57;;;;;;;;;;;27.70;57.90;;;;;;5061010;28;19920;-82
2022/07/07 03:48:23;;;;;;;;;;;27.70;58.10;;;;;;5070736;28;20284;-83
2022/07/07 03:50:48;;;;;;;;;;;27.80;58.00;;;;;;5075252;28;19913;-82
2022/07/07 03:53:14;;;;;;;;;;;27.80;57.90;;;;;;5049574;28;19921;-81
2022/07/07 03:55:39;;;;;;;;;;;27.70;57.80;;;;;;5050223;28;19922;-81
2022/07/07 03:58:05;;;;;;;;;;;27.80;58.10;;;;;;5046952;28;19909;-82
2022/07/07 04:00:31;;;;;;;;;;;27.80;57.70;;;;;;5069993;28;19909;-83
2022/07/07 04:02:57;;;;;;;;;;;27.70;57.70;;;;;;5058747;28;19951;-82
2022/07/07 04:05:22;;;;;;;;;;;27.70;57.80;;;;;;5075541;28;19955;-81
2022/07/07 04:07:48;;;;;;;;;;;27.70;57.60;;;;;;5075149;28;19908;-74
2022/07/07 04:10:14;;;;;;;;;;;27.70;58.00;;;;;;5075134;28;19955;-74
2022/07/07 04:12:39;;;;;;;;;;;27.70;58.10;;;;;;5075442;28;19974;-74
2022/07/07 04:15:05;;;;;;;;;;;27.60;57.70;;;;;;5074998;28;19916;-73
2022/07/07 04:17:30;;;;;;;;;;;27.70;58.00;;;;;;5055046;28;19919;-75
2022/07/07 04:19:56;;;;;;;;;;;27.70;58.10;;;;;;5037548;28;19909;-74
2022/07/07 04:22:21;;;;;;;;;;;27.60;58.00;;;;;;5055021;28;20303;-75
2022/07/07 04:24:47;;;;;;;;;;;27.70;58.00;;;;;;5055213;28;19916;-74
2022/07/07 04:27:12;;;;;;;;;;;27.60;57.10;;;;;;5055761;28;19908;-75
2022/07/07 04:29:38;;;;;;;;;;;27.70;58.10;;;;;;5055238;28;19909;-75
2022/07/07 04:32:04;;;;;;;;;;;27.70;57.70;;;;;;5055132;28;19923;-75
2022/07/07 04:34:29;;;;;;;;;;;27.60;57.50;;;;;;5055213;28;19924;-74
2022/07/07 04:36:55;;;;;;;;;;;27.70;57.60;;;;;;5055266;28;20007;-76
2022/07/07 04:39:21;;;;;;;;;;;27.60;57.00;;;;;;5054988;28;19928;-74
2022/07/07 04:41:46;;;;;;;;;;;27.60;56.80;;;;;;5054515;28;20355;-74
2022/07/07 04:44:12;;;;;;;;;;;27.60;57.10;;;;;;5037429;28;19975;-74
2022/07/07 04:46:37;;;;;;;;;;;27.60;57.50;;;;;;5055598;28;19995;-76
2022/07/07 04:49:03;;;;;;;;;;;27.60;57.00;;;;;;5054930;28;19913;-75
2022/07/07 04:51:28;;;;;;;;;;;27.50;57.30;;;;;;5054670;28;19912;-76
2022/07/07 04:53:54;;;;;;;;;;;27.50;57.30;;;;;;5054960;28;19923;-75
2022/07/07 04:56:20;;;;;;;;;;;27.40;57.40;;;;;;5036872;28;19966;-75
2022/07/07 04:58:45;;;;;;;;;;;27.50;57.20;;;;;;5054534;28;19951;-74
2022/07/07 05:01:11;;;;;;;;;;;27.50;57.70;;;;;;5054965;28;19909;-76
2022/07/07 05:03:36;;;;;;;;;;;27.40;56.80;;;;;;5054813;28;19909;-74
2022/07/07 05:06:02;;;;;;;;;;;27.40;58.00;;;;;;5054665;28;20263;-75
2022/07/07 05:08:29;;;;;;;;;;;27.30;57.60;;;;;;5036736;28;19909;-75
2022/07/07 05:10:55;;;;;;;;;;;27.30;57.20;;;;;;5036563;28;20359;-76
2022/07/07 05:13:21;;;;;;;;;;;27.30;57.00;;;;;;5054578;28;19978;-75
2022/07/07 05:15:48;;;;;;;;;;;27.30;57.20;;;;;;5054495;28;19948;-74
2022/07/07 05:18:14;;;;;;;;;;;27.30;57.30;;;;;;5054195;28;20267;-74
2022/07/07 05:20:40;;;;;;;;;;;27.30;56.60;;;;;;5054495;28;19941;-74
2022/07/07 05:23:05;;;;;;;;;;;27.40;56.50;;;;;;5054501;28;19916;-74
2022/07/07 05:25:31;;;;;;;;;;;27.40;56.50;;;;;;5054168;28;19916;-75
2022/07/07 05:27:56;;;;;;;;;;;27.40;56.50;;;;;;5054415;28;19917;-75
2022/07/07 05:30:22;;;;;;;;;;;27.50;56.30;;;;;;5036351;28;19909;-74
2022/07/07 05:32:47;;;;;;;;;;;27.50;56.30;;;;;;5053916;28;19916;-75
2022/07/07 05:35:13;;;;;;;;;;;27.50;56.30;;;;;;5036093;28;19973;-76
2022/07/07 05:37:40;;;;;;;;;;;27.50;56.40;;;;;;5036641;28;20306;-75
2022/07/07 05:40:07;;;;;;;;;;;27.50;56.20;;;;;;5053866;28;19917;-75
2022/07/07 05:42:33;;;;;;;;;;;27.60;56.20;;;;;;5035979;28;19920;-76
2022/07/07 05:44:58;;;;;;;;;;;27.60;56.00;;;;;;5053831;28;19916;-75
2022/07/07 05:47:24;;;;;;;;;;;27.50;55.80;;;;;;5053903;28;19952;-75
2022/07/07 05:49:49;;;;;;;;;;;27.60;55.90;;;;;;5054090;28;19908;-75
2022/07/07 05:52:15;;;;;;;;;;;27.50;55.90;;;;;;5035482;28;19909;-75
2022/07/07 05:54:40;;;;;;;;;;;27.60;55.80;;;;;;5054487;28;20355;-75
2022/07/07 05:57:06;;;;;;;;;;;27.60;55.70;;;;;;5054002;28;19909;-75
2022/07/07 05:59:32;;;;;;;;;;;27.50;55.50;;;;;;5036225;28;19948;-74
2022/07/07 06:01:57;;;;;;;;;;;27.50;56.10;;;;;;5035864;28;19912;-75
2022/07/07 06:04:24;;;;;;;;;;;27.40;55.60;;;;;;5053821;28;19955;-75
2022/07/07 06:06:50;;;;;;;;;;;27.40;55.80;;;;;;5036063;28;19909;-75
2022/07/07 06:09:16;;;;;;;;;;;27.50;56.50;;;;;;5054285;28;19909;-75
2022/07/07 06:11:41;;;;;;;;;;;27.40;55.90;;;;;;5054120;28;19909;-75
2022/07/07 06:14:07;;;;;;;;;;;27.40;55.90;;;;;;5035852;28;19909;-75
2022/07/07 06:16:38;;;;;;;;;;;27.50;56.00;;;;;;5053808;28;20263;-75
2022/07/07 06:19:04;;;;;;;;;;;27.50;55.70;;;;;;5054567;28;19916;-75
2022/07/07 06:21:30;;;;;;;;;;;27.50;55.80;;;;;;5054166;28;19963;-75
2022/07/07 06:23:55;;;;;;;;;;;27.50;55.80;;;;;;5053526;28;19913;-75
2022/07/07 06:26:21;;;;;;;;;;;27.50;55.80;;;;;;5053861;28;19916;-75
2022/07/07 06:28:47;;;;;;;;;;;27.50;55.70;;;;;;5053433;28;19916;-75
2022/07/07 06:31:12;;;;;;;;;;;27.60;55.80;;;;;;5054075;28;20093;-75
2022/07/07 06:33:38;;;;;;;;;;;27.60;55.80;;;;;;5035995;28;19909;-76
2022/07/07 06:36:04;;;;;;;;;;;27.60;55.70;;;;;;5036139;28;19915;-75
2022/07/07 06:38:29;;;;;;;;;;;27.70;55.60;;;;;;5053556;28;19928;-75
2022/07/07 06:40:58;;;;;;;;;;;27.80;55.60;;;;;;5035729;28;19913;-75
2022/07/07 06:43:24;;;;;;;;;;;27.80;55.40;;;;;;5053411;28;19913;-77
2022/07/07 06:45:50;;;;;;;;;;;27.90;55.40;;;;;;5054330;28;20011;-76
2022/07/07 06:48:15;;;;;;;;;;;27.90;55.20;;;;;;5035795;28;19956;-76
2022/07/07 06:50:41;;;;;;;;;;;28.00;55.20;;;;;;5035582;28;19912;-76
2022/07/07 06:53:07;;;;;;;;;;;28.00;55.10;;;;;;5053705;28;19966;-76
2022/07/07 06:55:33;;;;;;;;;;;28.00;55.00;;;;;;5035642;28;20381;-76
2022/07/07 06:57:58;;;;;;;;;;;28.10;55.00;;;;;;5053533;28;19909;-76
2022/07/07 07:00:24;;;;;;;;;;;28.10;55.00;;;;;;5035521;28;19909;-76
2022/07/07 07:02:50;;;;;;;;;;;28.10;55.00;;;;;;5035462;28;19920;-76
2022/07/07 07:05:16;;;;;;;;;;;28.10;55.00;;;;;;5039800;28;19913;-76
2022/07/07 07:07:41;;;;;;;;;;;28.10;54.90;;;;;;5057269;28;19908;-76
2022/07/07 07:10:07;;;;;;;;;;;28.10;54.90;;;;;;5056655;28;19927;-76
2022/07/07 07:12:33;;;;;;;;;;;28.10;54.90;;;;;;5056710;28;19948;-75
2022/07/07 07:14:58;;;;;;;;;;;28.10;54.80;;;;;;5038993;28;20405;-76
2022/07/07 07:17:24;;;;;;;;;;;28.10;54.80;;;;;;5057277;28;19912;-75
2022/07/07 07:19:50;;;;;;;;;;;28.20;54.80;;;;;;5056666;28;20351;-76
2022/07/07 07:22:15;;;;;;;;;;;28.20;54.60;;;;;;5056891;28;19966;-75
2022/07/07 07:24:41;;;;;;;;;;;28.30;54.60;;;;;;5056517;28;20264;-75
2022/07/07 07:27:07;;;;;;;;;;;28.30;54.50;;;;;;5056649;28;19909;-75
2022/07/07 07:29:32;;;;;;;;;;;28.40;54.40;;;;;;5056294;28;19908;-75
2022/07/07 07:31:58;;;;;;;;;;;28.40;54.20;;;;;;5056649;28;19909;-76
2022/07/07 07:34:23;;;;;;;;;;;28.40;54.00;;;;;;5056869;28;19916;-75
2022/07/07 07:36:49;;;;;;;;;;;28.50;53.90;;;;;;5056503;28;19909;-76
2022/07/07 07:39:14;;;;;;;;;;;28.50;54.00;;;;;;5038598;28;19925;-77
2022/07/07 07:41:40;;;;;;;;;;;28.60;53.80;;;;;;5056419;28;19913;-77
2022/07/07 07:44:06;;;;;;;;;;;28.60;53.70;;;;;;5056094;28;19913;-77
2022/07/07 07:46:31;;;;;;;;;;;28.70;53.60;;;;;;5038942;28;20351;-76
2022/07/07 07:48:59;;;;;;;;;;;28.70;53.50;;;;;;5038381;28;19928;-77
2022/07/07 07:51:25;;;;;;;;;;;28.80;53.40;;;;;;5056063;28;20294;-77
2022/07/07 07:53:50;;;;;;;;;;;28.80;53.30;;;;;;5056057;28;19909;-76
2022/07/07 07:56:16;;;;;;;;;;;28.90;53.20;;;;;;5056089;28;19959;-76
2022/07/07 07:58:41;;;;;;;;;;;28.90;53.70;;;;;;5055761;28;19913;-76
2022/07/07 08:01:07;;;;;;;;;;;29.00;53.00;;;;;;5038530;28;20423;-76
2022/07/07 08:03:33;;;;;;;;;;;29.00;52.90;;;;;;5056074;28;19913;-77
2022/07/07 08:05:58;;;;;;;;;;;29.00;52.80;;;;;;5055683;28;19908;-77
2022/07/07 08:08:24;;;;;;;;;;;29.10;52.80;;;;;;5055677;28;20359;-77
2022/07/07 08:10:49;;;;;;;;;;;29.10;52.70;;;;;;5055584;28;20311;-77
2022/07/07 08:13:15;;;;;;;;;;;29.10;52.60;;;;;;5055577;28;19931;-77
2022/07/07 08:15:41;;;;;;;;;;;29.10;52.50;;;;;;5056809;28;19909;-77
2022/07/07 08:18:06;;;;;;;;;;;29.20;52.50;;;;;;5055488;28;19916;-76
2022/07/07 08:20:32;;;;;;;;;;;29.10;52.50;;;;;;5038067;28;19940;-75
2022/07/07 08:22:58;;;;;;;;;;;29.20;52.50;;;;;;5055482;28;19919;-76
2022/07/07 08:25:23;;;;;;;;;;;29.20;52.40;;;;;;5055543;28;19913;-76
2022/07/07 08:27:49;;;;;;;;;;;29.20;52.30;;;;;;5037384;28;20278;-76
2022/07/07 08:30:15;;;;;;;;;;;29.30;52.30;;;;;;5055718;28;19912;-81
2022/07/07 08:32:44;;;;;;;;;;;29.30;52.30;;;;;;5055572;28;20278;-77
2022/07/07 08:35:10;;;;;;;;;;;29.30;52.20;;;;;;5055397;28;19909;-76
2022/07/07 08:37:36;;;;;;;;;;;29.40;52.10;;;;;;5055200;28;19928;-76
2022/07/07 08:40:02;;;;;;;;;;;29.40;52.00;;;;;;5055056;28;19909;-76
2022/07/07 08:42:28;;;;;;;;;;;29.50;52.00;;;;;;5036884;28;20410;-75
2022/07/07 08:44:54;;;;;;;;;;;29.60;52.00;;;;;;5055113;28;19917;-79
2022/07/07 08:47:19;;;;;;;;;;;29.60;51.80;;;;;;5055015;28;20326;-77
2022/07/07 08:49:45;;;;;;;;;;;29.60;51.70;;;;;;5055058;28;19956;-76
2022/07/07 08:52:10;;;;;;;;;;;29.70;51.70;;;;;;5037078;28;20405;-77
2022/07/07 08:54:38;;;;;;;;;;;29.70;51.60;;;;;;5036781;28;19967;-77
2022/07/07 08:57:03;;;;;;;;;;;29.80;51.50;;;;;;5054908;28;19920;-77
2022/07/07 08:59:29;;;;;;;;;;;29.90;51.50;;;;;;5054960;28;20448;-76
2022/07/07 09:01:56;;;;;;;;;;;29.90;51.30;;;;;;5057018;28;19916;-76
2022/07/07 09:04:22;;;;;;;;;;;30.10;51.30;;;;;;5056138;28;19913;-76
2022/07/07 09:06:54;;;;;;;;;;;30.20;51.20;;;;;;5054837;28;19908;-76
2022/07/07 09:09:27;;;;;;;;;;;30.30;51.10;;;;;;5054521;28;19909;-77
2022/07/07 09:11:59;;;;;;;;;;;30.40;50.90;;;;;;5054878;28;19908;-77
2022/07/07 09:14:24;;;;;;;;;;;30.50;50.80;;;;;;5036723;28;19912;-77
2022/07/07 09:16:50;;;;;;;;;;;30.60;50.60;;;;;;5054330;28;19932;-77
2022/07/07 09:19:19;;;;;;;;;;;30.70;50.50;;;;;;5054172;28;19951;-77
2022/07/07 09:21:45;;;;;;;;;;;30.70;50.40;;;;;;5054031;28;19960;-77
2022/07/07 09:24:11;;;;;;;;;;;30.80;50.30;;;;;;5055712;28;19917;-77
2022/07/07 09:26:38;;;;;;;;;;;30.80;50.20;;;;;;5054708;28;20420;-76
2022/07/07 09:29:08;;;;;;;;;;;30.80;50.10;;;;;;5053561;28;19909;-77
2022/07/07 09:31:52;;;;;;;;;;;30.90;50.00;;;;;;5054366;28;19948;-76
2022/07/07 09:34:19;;;;;;;;;;;30.90;50.10;;;;;;5053891;28;19909;-76
2022/07/07 09:39:58;;;;;;;;;;;30.90;49.80;;;;;;5054227;28;19928;-76
2022/07/07 09:42:27;;;;;;;;;;;30.90;49.80;;;;;;5036328;28;20385;-77
2022/07/07 09:44:53;;;;;;;;;;;30.90;49.80;;;;;;5053674;28;19913;-76
2022/07/07 09:47:20;;;;;;;;;;;30.90;49.70;;;;;;5053826;28;20429;-77
2022/07/07 09:49:57;;;;;;;;;;;30.90;49.70;;;;;;5053895;28;19909;-77
2022/07/07 09:52:22;;;;;;;;;;;30.90;49.60;;;;;;5054136;28;20280;-76
2022/07/07 09:54:48;;;;;;;;;;;30.90;49.60;;;;;;5053903;28;19915;-76
2022/07/07 09:57:14;;;;;;;;;;;30.90;49.60;;;;;;5053495;28;19917;-80
2022/07/07 09:59:41;;;;;;;;;;;30.90;49.60;;;;;;5053582;28;19909;-76
2022/07/07 10:02:16;;;;;;;;;;;30.90;49.50;;;;;;5053601;28;20346;-77
2022/07/07 10:04:43;;;;;;;;;;;30.90;49.60;;;;;;5053422;28;19921;-77
2022/07/07 10:07:09;;;;;;;;;;;30.80;49.50;;;;;;5053420;28;19908;-77
2022/07/07 10:09:36;;;;;;;;;;;30.80;49.50;;;;;;5035660;28;20015;-76
2022/07/07 10:12:02;;;;;;;;;;;30.80;49.50;;;;;;5053184;28;20321;-76
2022/07/07 10:14:35;;;;;;;;;;;30.70;50.10;;;;;;5053371;28;20473;-77
2022/07/07 10:17:01;;;;;;;;;;;30.70;49.60;;;;;;5053740;28;19909;-77
2022/07/07 10:19:26;;;;;;;;;;;30.60;49.60;;;;;;5019217;28;19916;-76
2022/07/07 10:21:53;;;;;;;;;;;30.50;49.50;;;;;;5053355;28;19939;-75
2022/07/07 10:24:20;;;;;;;;;;;30.50;49.60;;;;;;5053360;28;19913;-76
2022/07/07 10:26:50;;;;;;;;;;;30.50;49.80;;;;;;5053587;28;19908;-77
2022/07/07 10:29:16;;;;;;;;;;;30.50;49.80;;;;;;5035926;28;19909;-77
2022/07/07 10:31:49;;;;;;;;;;;30.40;49.80;;;;;;5053735;28;19908;-78
2022/07/07 10:34:14;;;;;;;;;;;30.40;49.80;;;;;;5037455;28;20394;-77
2022/07/07 10:36:46;;;;;;;;;;;30.40;49.90;;;;;;5053901;28;19952;-77
2022/07/07 10:39:12;;;;;;;;;;;30.30;49.80;;;;;;5055350;28;19921;-77
2022/07/07 10:41:39;;;;;;;;;;;30.30;49.90;;;;;;5057283;28;19913;-77
2022/07/07 10:44:05;;;;;;;;;;;30.20;49.80;;;;;;5022915;28;19916;-75
2022/07/07 10:46:31;;;;;;;;;;;30.20;49.90;;;;;;5056871;28;19920;-76
2022/07/07 10:49:04;;;;;;;;;;;30.20;49.90;;;;;;5057375;28;19913;-76
2022/07/07 10:51:31;;;;;;;;;;;30.20;50.00;;;;;;5056802;28;20355;-77
2022/07/07 10:53:58;;;;;;;;;;;30.10;49.90;;;;;;5039179;28;20371;-77
2022/07/07 10:56:23;;;;;;;;;;;30.10;50.00;;;;;;5039150;28;19919;-76
2022/07/07 10:58:59;;;;;;;;;;;30.10;50.00;;;;;;5057692;28;19909;-77
2022/07/07 11:01:26;;;;;;;;;;;30.10;50.10;;;;;;5039000;28;19931;-78
2022/07/07 11:03:51;;;;;;;;;;;30.10;50.10;;;;;;5056402;28;19939;-77
2022/07/07 11:06:17;;;;;;;;;;;30.10;50.00;;;;;;5056399;28;20004;-76
2022/07/07 11:08:54;;;;;;;;;;;30.10;50.00;;;;;;5056602;28;19913;-76
2022/07/07 11:11:19;;;;;;;;;;;30.10;49.90;;;;;;5056772;28;19935;-76
2022/07/07 11:13:45;;;;;;;;;;;30.10;49.90;;;;;;5056579;28;19912;-77
2022/07/07 11:16:10;;;;;;;;;;;30.10;49.90;;;;;;5056508;28;19915;-76
2022/07/07 11:18:36;;;;;;;;;;;30.10;50.00;;;;;;5056332;28;19948;-75
2022/07/07 11:21:03;;;;;;;;;;;30.00;49.90;;;;;;5056500;28;19956;-76
2022/07/07 11:23:49;;;;;;;;;;;30.00;49.90;;;;;;5056577;28;20319;-77
2022/07/07 11:26:15;;;;;;;;;;;30.00;50.00;;;;;;5056425;28;20366;-77
2022/07/07 11:28:41;;;;;;;;;;;29.90;49.90;;;;;;5040367;28;20434;-76
2022/07/07 11:31:07;;;;;;;;;;;29.90;50.00;;;;;;5056144;28;19991;-80
2022/07/07 11:33:33;;;;;;;;;;;29.90;50.00;;;;;;5057061;28;20003;-76
2022/07/07 11:35:58;;;;;;;;;;;29.90;50.00;;;;;;5056229;28;19955;-77
2022/07/07 11:38:26;;;;;;;;;;;29.90;50.00;;;;;;5056076;28;20340;-77
2022/07/07 11:40:52;;;;;;;;;;;29.90;50.00;;;;;;5038690;28;19912;-76
2022/07/07 11:43:24;;;;;;;;;;;29.90;50.10;;;;;;5058006;28;19982;-77
2022/07/07 11:45:49;;;;;;;;;;;29.90;50.10;;;;;;5056429;28;19919;-77
2022/07/07 11:48:15;;;;;;;;;;;29.80;50.00;;;;;;5038191;28;20274;-76
2022/07/07 11:50:40;;;;;;;;;;;29.80;50.00;;;;;;5055331;28;19908;-76
2022/07/07 11:53:06;;;;;;;;;;;29.80;50.00;;;;;;5055940;28;19948;-76
2022/07/07 11:55:32;;;;;;;;;;;29.80;50.10;;;;;;5055974;28;19916;-76
2022/07/07 11:57:58;;;;;;;;;;;29.70;50.00;;;;;;5056284;28;19995;-77
2022/07/07 12:00:25;;;;;;;;;;;29.70;50.10;;;;;;5055690;28;19952;-77
2022/07/07 12:02:51;;;;;;;;;;;29.70;50.20;;;;;;5055617;28;19920;-77
2022/07/07 12:05:18;;;;;;;;;;;29.70;50.20;;;;;;5055827;28;19920;-77
2022/07/07 12:07:44;;;;;;;;;;;29.60;50.20;;;;;;5038215;28;19909;-77
2022/07/07 12:10:21;;;;;;;;;;;29.60;50.20;;;;;;5055879;28;19995;-76
2022/07/07 12:13:06;;;;;;;;;;;29.60;50.20;;;;;;5055773;28;20262;-77
2022/07/07 12:15:36;;;;;;;;;;;29.60;50.20;;;;;;5038116;28;20409;-76
2022/07/07 12:18:03;;;;;;;;;;;29.60;50.20;;;;;;5056127;28;19909;-77
2022/07/07 12:20:29;;;;;;;;;;;29.60;50.30;;;;;;5055986;28;19952;-77
2022/07/07 12:22:56;;;;;;;;;;;29.60;50.30;;;;;;5055481;28;19987;-75
2022/07/07 12:25:26;;;;;;;;;;;29.50;50.30;;;;;;5037422;28;19920;-77
2022/07/07 12:27:52;;;;;;;;;;;29.50;50.30;;;;;;5055421;28;19943;-77
2022/07/07 12:30:17;;;;;;;;;;;29.50;50.30;;;;;;5055268;28;20349;-77
2022/07/07 12:32:46;;;;;;;;;;;29.40;50.40;;;;;;5055520;28;20003;-76
2022/07/07 12:35:27;;;;;;;;;;;29.40;50.40;;;;;;5055326;28;19916;-77
2022/07/07 12:37:52;;;;;;;;;;;29.40;50.50;;;;;;5054922;28;20370;-77
2022/07/07 12:40:18;;;;;;;;;;;29.40;50.50;;;;;;5055249;28;19916;-77
2022/07/07 12:42:45;;;;;;;;;;;29.40;50.50;;;;;;5054808;28;20380;-77
2022/07/07 12:45:14;;;;;;;;;;;29.40;50.50;;;;;;5054888;28;20280;-76
2022/07/07 12:47:50;;;;;;;;;;;29.40;50.50;;;;;;5037307;28;19916;-77
2022/07/07 12:50:16;;;;;;;;;;;29.40;50.50;;;;;;5037213;28;19920;-76
2022/07/07 12:52:52;;;;;;;;;;;29.40;50.50;;;;;;5056949;28;19912;-76
2022/07/07 12:55:18;;;;;;;;;;;29.40;50.50;;;;;;5038192;28;20017;-76
2022/07/07 12:57:43;;;;;;;;;;;29.50;50.60;;;;;;5037183;28;19909;-77
2022/07/07 13:00:22;;;;;;;;;;;29.50;50.60;;;;;;5036568;28;19948;-76
2022/07/07 13:02:47;;;;;;;;;;;29.50;50.60;;;;;;5054341;28;20425;-76
2022/07/07 13:05:13;;;;;;;;;;;29.60;50.60;;;;;;5036762;28;19912;-76
2022/07/07 13:07:38;;;;;;;;;;;29.50;50.50;;;;;;5054679;28;19909;-76
2022/07/07 13:10:04;;;;;;;;;;;29.60;50.50;;;;;;5036992;28;19912;-76
2022/07/07 13:12:29;;;;;;;;;;;29.60;50.50;;;;;;5054478;28;19915;-76
2022/07/07 13:14:55;;;;;;;;;;;29.60;50.50;;;;;;5036819;28;20351;-76
2022/07/07 13:17:20;;;;;;;;;;;29.60;50.50;;;;;;5054332;28;19916;-76
2022/07/07 13:19:46;;;;;;;;;;;29.60;50.50;;;;;;5054473;28;19908;-76
2022/07/07 13:22:12;;;;;;;;;;;29.60;50.60;;;;;;5054427;28;20374;-76
2022/07/07 13:24:37;;;;;;;;;;;29.50;50.60;;;;;;5054431;28;20004;-76
2022/07/07 13:27:03;;;;;;;;;;;29.50;50.60;;;;;;5054456;28;20461;-76
2022/07/07 13:29:29;;;;;;;;;;;29.50;50.60;;;;;;5036564;28;19915;-76
2022/07/07 13:31:54;;;;;;;;;;;29.50;50.60;;;;;;5054228;28;19913;-76
2022/07/07 13:34:20;;;;;;;;;;;29.50;50.70;;;;;;5054641;28;19999;-77
2022/07/07 13:36:46;;;;;;;;;;;29.50;50.70;;;;;;5054642;28;19909;-77
2022/07/07 13:39:12;;;;;;;;;;;29.60;50.80;;;;;;5054527;28;19921;-77
2022/07/07 13:41:37;;;;;;;;;;;29.70;50.80;;;;;;5054550;28;19912;-76
2022/07/07 13:44:03;;;;;;;;;;;29.70;50.60;;;;;;5036403;28;20020;-77
2022/07/07 13:46:30;;;;;;;;;;;29.80;50.50;;;;;;5036327;28;19913;-76
2022/07/07 13:48:55;;;;;;;;;;;29.90;50.40;;;;;;5054059;28;19924;-75
2022/07/07 13:51:21;;;;;;;;;;;30.00;50.40;;;;;;5053968;28;20267;-76
2022/07/07 13:53:47;;;;;;;;;;;30.00;50.30;;;;;;5053889;28;20355;-76
2022/07/07 13:56:12;;;;;;;;;;;30.10;50.20;;;;;;5035858;28;19940;-77
2022/07/07 13:58:38;;;;;;;;;;;30.10;50.20;;;;;;5054267;28;20359;-77
2022/07/07 14:01:03;;;;;;;;;;;30.10;50.20;;;;;;5053451;28;19909;-76
2022/07/07 14:03:29;;;;;;;;;;;30.00;50.10;;;;;;5054464;28;20378;-76
2022/07/07 14:05:54;;;;;;;;;;;30.00;50.10;;;;;;5053823;28;19920;-77
2022/07/07 14:08:20;;;;;;;;;;;30.00;50.20;;;;;;5053611;28;19916;-76
2022/07/07 14:10:45;;;;;;;;;;;29.90;50.20;;;;;;5035690;28;19909;-76
2022/07/07 14:13:11;;;;;;;;;;;29.90;50.20;;;;;;5053454;28;20332;-76
2022/07/07 14:15:37;;;;;;;;;;;29.80;50.20;;;;;;5057186;28;19909;-76